createdAt,value
2022-08-10T00:01:51.687Z,0.32
2022-08-10T00:04:21.314Z,0.40
2022-08-10T00:06:53.225Z,0.50
2022-08-10T00:09:21.923Z,0.50
2022-08-10T00:11:49.111Z,0.60
2022-08-10T00:14:16.043Z,0.50
2022-08-10T00:16:44.280Z,0.50
2022-08-10T00:19:16.688Z,0.50
2022-08-10T00:21:47.057Z,0.40
2022-08-10T00:24:15.517Z,0.55
2022-08-10T00:28:01.040Z,0.43
2022-08-10T00:29:29.601Z,0.60
2022-08-10T00:31:59.207Z,0.60
2022-08-10T00:34:32.169Z,0.70
2022-08-10T00:37:00.735Z,0.73
2022-08-10T00:39:29.273Z,0.80
2022-08-10T00:42:02.198Z,0.60
2022-08-10T00:44:53.598Z,0.60
2022-08-10T00:47:36.154Z,0.52
2022-08-10T00:50:07.274Z,0.75
2022-08-10T00:52:36.476Z,0.60
2022-08-10T00:55:08.521Z,0.82
2022-08-10T00:57:35.533Z,0.68
2022-08-10T01:00:04.900Z,0.80
2022-08-10T01:02:33.177Z,0.63
2022-08-10T01:05:09.084Z,0.50
2022-08-10T01:08:19.357Z,0.60
2022-08-10T01:12:38.864Z,0.60
2022-08-10T01:14:19.035Z,0.70
2022-08-10T01:17:50.439Z,0.60
2022-08-10T01:20:31.686Z,0.47
2022-08-10T01:23:44.610Z,0.47
2022-08-10T01:27:07.994Z,0.65
2022-08-10T01:30:21.036Z,0.57
2022-08-10T01:33:11.797Z,0.90
2022-08-10T01:36:05.247Z,0.60
2022-08-10T01:38:35.303Z,0.60
2022-08-10T01:41:26.281Z,0.50
2022-08-10T01:44:12.067Z,1.05
2022-08-10T01:47:23.591Z,0.80
2022-08-10T01:50:03.145Z,0.80
2022-08-10T01:52:32.065Z,0.77
2022-08-10T01:54:59.497Z,1.13
2022-08-10T01:57:32.284Z,0.70
2022-08-10T02:00:03.354Z,0.90
2022-08-10T02:02:34.876Z,0.80
2022-08-10T02:05:06.450Z,0.90
2022-08-10T02:07:38.953Z,0.95
2022-08-10T02:10:12.867Z,0.90
2022-08-10T02:12:43.035Z,1.10
2022-08-10T02:15:19.164Z,0.93
2022-08-10T02:17:59.431Z,0.80
2022-08-10T02:20:41.265Z,0.95
2022-08-10T02:23:15.337Z,1.00
2022-08-10T02:25:45.263Z,0.80
2022-08-10T02:28:30.260Z,0.93
2022-08-10T02:31:11.385Z,1.23
2022-08-10T02:33:54.199Z,0.85
2022-08-10T02:36:30.905Z,1.08
2022-08-10T02:39:02.953Z,1.00
2022-08-10T02:45:01.818Z,1.40
2022-08-10T02:45:20.596Z,1.35
2022-08-10T02:48:01.516Z,0.75
2022-08-10T02:50:33.533Z,1.02
2022-08-10T02:53:55.812Z,1.10
2022-08-10T02:56:36.685Z,1.10
2022-08-10T02:59:39.622Z,1.33
2022-08-10T03:02:15.277Z,1.30
2022-08-10T03:04:55.938Z,1.20
2022-08-10T03:07:42.926Z,1.27
2022-08-10T03:10:18.336Z,1.10
2022-08-10T03:12:51.298Z,1.40
2022-08-10T03:15:40.440Z,1.45
2022-08-10T03:18:09.553Z,1.38
2022-08-10T03:20:57.722Z,1.50
2022-08-10T03:23:26.757Z,1.52
2022-08-10T03:25:57.763Z,1.50
2022-08-10T03:28:29.014Z,1.27
2022-08-10T03:31:13.148Z,1.70
2022-08-10T03:33:43.560Z,1.77
2022-08-10T03:36:43.621Z,1.90
2022-08-10T03:39:00.085Z,1.85
2022-08-10T03:41:57.511Z,1.83
2022-08-10T03:44:32.152Z,1.80
2022-08-10T03:47:16.156Z,2.15
2022-08-10T03:49:47.452Z,1.77
2022-08-10T03:52:19.169Z,2.25
2022-08-10T03:54:47.213Z,2.15
2022-08-10T03:57:16.568Z,2.22
2022-08-10T03:59:43.754Z,2.38
2022-08-10T04:02:46.398Z,1.80
2022-08-10T04:05:00.430Z,2.28
2022-08-10T04:07:28.407Z,2.20
2022-08-10T04:09:56.415Z,2.67
2022-08-10T04:12:25.715Z,2.47
2022-08-10T04:14:53.743Z,2.53
2022-08-10T04:18:02.763Z,2.30
2022-08-10T04:20:39.975Z,2.28
2022-08-10T04:23:18.194Z,2.78
2022-08-10T04:25:45.054Z,2.55
2022-08-10T04:28:12.819Z,2.63
2022-08-10T04:30:41.616Z,2.85
2022-08-10T04:33:10.975Z,2.70
2022-08-10T04:35:40.090Z,2.50
2022-08-10T04:38:09.252Z,3.00
2022-08-10T04:40:36.939Z,2.58
2022-08-10T04:43:12.271Z,2.70
2022-08-10T04:45:49.200Z,3.10
2022-08-10T04:48:42.551Z,3.03
2022-08-10T04:51:18.433Z,3.40
2022-08-10T04:54:03.004Z,3.17
2022-08-10T04:56:40.538Z,3.15
2022-08-10T04:59:10.346Z,3.20
2022-08-10T05:02:28.178Z,3.40
2022-08-10T05:04:34.841Z,3.08
2022-08-10T05:07:16.761Z,2.53
2022-08-10T05:10:03.823Z,3.00
2022-08-10T05:12:38.674Z,3.60
2022-08-10T05:15:11.829Z,2.85
2022-08-10T05:17:41.318Z,3.25
2022-08-10T05:20:28.313Z,3.05
2022-08-10T05:22:55.025Z,3.20
2022-08-10T05:25:21.870Z,3.53
2022-08-10T05:27:48.891Z,3.53
2022-08-10T05:30:23.569Z,3.13
2022-08-10T05:32:56.142Z,4.07
2022-08-10T05:35:25.905Z,3.78
2022-08-10T05:38:10.474Z,3.70
2022-08-10T05:40:46.820Z,5.38
2022-08-10T05:43:17.965Z,3.47
2022-08-10T05:46:19.076Z,3.50
2022-08-10T05:48:41.702Z,3.78
2022-08-10T05:51:22.143Z,3.22
2022-08-10T05:54:03.114Z,3.40
2022-08-10T05:56:56.099Z,3.50
2022-08-10T06:00:29.334Z,3.53
2022-08-10T06:02:35.611Z,3.55
2022-08-10T06:05:19.445Z,3.38
2022-08-10T06:07:52.864Z,3.55
2022-08-10T06:10:32.569Z,3.15
2022-08-10T06:13:30.069Z,3.78
2022-08-10T06:16:02.571Z,3.42
2022-08-10T06:18:30.171Z,2.95
2022-08-10T06:20:58.137Z,3.00
2022-08-10T06:23:31.118Z,3.47
2022-08-10T06:26:10.367Z,3.25
2022-08-10T06:29:03.312Z,2.92
2022-08-10T06:31:48.790Z,3.83
2022-08-10T06:34:30.365Z,3.08
2022-08-10T06:37:01.685Z,2.97
2022-08-10T06:39:36.941Z,3.28
2022-08-10T06:42:14.629Z,3.03
2022-08-10T06:45:13.304Z,3.47
2022-08-10T06:47:54.252Z,3.05
2022-08-10T06:50:56.193Z,3.30
2022-08-10T06:53:54.256Z,3.08
2022-08-10T06:56:35.973Z,3.17
2022-08-10T06:59:40.184Z,3.05
2022-08-10T07:02:19.620Z,2.85
2022-08-10T07:05:00.954Z,2.60
2022-08-10T07:07:34.868Z,2.75
2022-08-10T07:10:02.472Z,2.25
2022-08-10T07:12:32.426Z,2.53
2022-08-10T07:15:01.346Z,2.05
2022-08-10T07:17:34.866Z,2.30
2022-08-10T07:20:11.212Z,2.28
2022-08-10T07:23:26.861Z,2.05
2022-08-10T07:25:31.660Z,2.72
2022-08-10T07:28:02.235Z,2.15
2022-08-10T07:30:35.836Z,2.30
2022-08-10T07:33:05.042Z,1.98
2022-08-10T07:35:42.563Z,2.20
2022-08-10T07:38:29.428Z,2.05
2022-08-10T07:41:02.481Z,1.92
2022-08-10T07:43:37.325Z,1.92
2022-08-10T07:46:12.119Z,2.20
2022-08-10T07:48:49.219Z,1.98
2022-08-10T07:51:21.589Z,1.75
2022-08-10T07:53:55.493Z,2.10
2022-08-10T07:56:47.990Z,1.80
2022-08-10T07:59:22.872Z,1.63
2022-08-10T08:01:56.223Z,1.77
2022-08-10T08:04:26.009Z,1.92
2022-08-10T08:06:54.701Z,1.70
2022-08-10T08:09:24.476Z,1.70
2022-08-10T08:11:54.406Z,1.30
2022-08-10T08:14:24.684Z,1.40
2022-08-10T08:16:55.186Z,1.73
2022-08-10T08:19:27.766Z,1.60
2022-08-10T08:24:30.564Z,1.33
2022-08-10T08:24:46.481Z,1.60
2022-08-10T08:27:19.764Z,0.93
2022-08-10T08:29:52.464Z,1.15
2022-08-10T08:32:23.596Z,1.13
2022-08-10T08:34:59.540Z,1.05
2022-08-10T08:38:31.781Z,0.80
2022-08-10T08:40:32.673Z,0.90
2022-08-10T08:43:59.760Z,0.77
2022-08-10T08:47:12.031Z,1.30
2022-08-10T08:50:09.696Z,0.90
2022-08-10T08:52:53.768Z,0.80
2022-08-10T08:56:05.028Z,0.85
2022-08-10T08:58:54.939Z,0.80
2022-08-10T09:01:46.790Z,0.98
2022-08-10T09:04:52.682Z,1.10
2022-08-10T09:08:03.102Z,0.80
2022-08-10T09:11:15.228Z,0.90
2022-08-10T09:14:08.588Z,0.70
2022-08-10T09:16:53.610Z,1.30
2022-08-10T09:19:36.685Z,0.90
2022-08-10T09:23:04.905Z,1.35
2022-08-10T09:25:42.029Z,0.80
2022-08-10T09:28:26.654Z,0.70
2022-08-10T09:31:21.898Z,0.70
2022-08-10T09:36:24.241Z,1.15
2022-08-10T09:37:24.320Z,0.90
2022-08-10T09:41:00.265Z,0.80
2022-08-10T09:43:51.242Z,0.70
2022-08-10T09:46:45.749Z,0.70
2022-08-10T09:49:59.727Z,0.80
2022-08-10T09:53:03.220Z,1.23
2022-08-10T09:56:18.605Z,0.90
2022-08-10T09:58:43.174Z,0.65
2022-08-10T10:01:58.300Z,0.63
2022-08-10T10:04:46.229Z,0.90
2022-08-10T10:07:25.658Z,0.80
2022-08-10T10:10:22.510Z,1.30
2022-08-10T10:13:06.926Z,0.60
2022-08-10T10:16:07.607Z,0.80
2022-08-10T10:18:34.347Z,0.68
2022-08-10T10:21:55.283Z,1.30
2022-08-10T10:24:47.470Z,0.73
2022-08-10T10:27:33.216Z,0.60
2022-08-10T10:30:10.326Z,0.70
2022-08-10T10:32:59.495Z,0.80
2022-08-10T10:35:52.921Z,0.68
2022-08-10T10:38:29.733Z,0.95
2022-08-10T10:41:57.427Z,0.80
2022-08-10T10:44:46.698Z,1.35
2022-08-10T10:47:55.189Z,0.80
2022-08-10T10:51:03.992Z,0.60
2022-08-10T10:54:36.959Z,0.90
2022-08-10T10:58:00.207Z,0.60
2022-08-10T11:00:23.909Z,0.73
2022-08-10T11:03:48.214Z,0.70
2022-08-10T11:06:50.871Z,0.70
2022-08-10T11:10:05.518Z,0.60
2022-08-10T11:12:32.115Z,0.70
2022-08-10T11:15:09.389Z,0.70
2022-08-10T11:17:48.849Z,0.63
2022-08-10T11:20:48.291Z,0.65
2022-08-10T11:23:43.073Z,0.60
2022-08-10T11:26:55.761Z,0.70
2022-08-10T11:30:01.983Z,0.50
2022-08-10T11:33:10.356Z,0.70
2022-08-10T11:35:56.428Z,0.70
2022-08-10T11:39:04.034Z,1.50
2022-08-10T11:42:09.501Z,0.63
2022-08-10T11:45:02.427Z,0.70
2022-08-10T11:47:46.618Z,0.60
2022-08-10T11:50:41.968Z,0.68
2022-08-10T11:53:51.270Z,0.70
2022-08-10T11:56:31.736Z,0.43
2022-08-10T11:59:17.940Z,0.50
2022-08-10T12:01:50.748Z,0.73
2022-08-10T12:04:21.350Z,0.70
2022-08-10T12:06:55.642Z,0.50
2022-08-10T12:10:11.507Z,0.50
2022-08-10T12:12:15.201Z,0.73
2022-08-10T12:14:55.178Z,0.52
2022-08-10T12:17:39.776Z,0.52
2022-08-10T12:20:35.841Z,0.40
2022-08-10T12:23:19.751Z,0.40
2022-08-10T12:26:12.655Z,0.65
2022-08-10T12:28:51.862Z,0.50
2022-08-10T12:31:31.530Z,0.50
2022-08-10T12:34:28.825Z,0.40
2022-08-10T12:37:12.544Z,0.70
2022-08-10T12:40:34.400Z,0.40
2022-08-10T12:44:05.488Z,0.55
2022-08-10T12:46:49.425Z,0.40
2022-08-10T12:49:37.259Z,0.38
2022-08-10T12:52:23.527Z,0.63
2022-08-10T12:54:53.295Z,0.50
2022-08-10T12:57:25.002Z,0.50
2022-08-10T12:59:57.845Z,0.88
2022-08-10T13:02:39.050Z,0.50
2022-08-10T13:05:11.285Z,0.60
2022-08-10T13:08:03.723Z,0.50
2022-08-10T13:10:41.381Z,0.52
2022-08-10T13:13:09.543Z,0.43
2022-08-10T13:15:49.207Z,0.52
2022-08-10T13:18:27.723Z,0.32
2022-08-10T13:21:20.997Z,0.43
2022-08-10T13:24:14.944Z,1.33
2022-08-10T13:27:26.442Z,0.60
2022-08-10T13:30:03.607Z,0.60
2022-08-10T13:32:36.273Z,0.68
2022-08-10T13:35:11.993Z,0.63
2022-08-10T13:37:45.013Z,0.50
2022-08-10T13:40:16.180Z,0.77
2022-08-10T13:42:45.715Z,0.68
2022-08-10T13:45:23.383Z,0.50
2022-08-10T13:47:55.908Z,0.52
2022-08-10T13:50:34.514Z,0.70
2022-08-10T13:53:11.498Z,0.50
2022-08-10T13:55:56.128Z,0.68
2022-08-10T13:58:48.101Z,0.63
2022-08-10T14:01:23.319Z,0.70
2022-08-10T14:04:00.626Z,0.90
2022-08-10T14:06:30.116Z,0.40
2022-08-10T14:09:04.664Z,0.85
2022-08-10T14:11:34.062Z,1.15
2022-08-10T14:14:32.432Z,1.48
2022-08-10T14:17:01.735Z,0.82
2022-08-10T14:19:36.669Z,0.57
2022-08-10T14:22:06.980Z,0.70
2022-08-10T14:24:36.815Z,0.43
2022-08-10T14:27:11.309Z,0.80
2022-08-10T14:29:46.327Z,0.70
2022-08-10T14:32:17.375Z,0.60
2022-08-10T14:36:16.802Z,0.70
2022-08-10T14:37:38.988Z,0.60
2022-08-10T14:40:13.608Z,0.70
2022-08-10T14:42:53.731Z,0.47
2022-08-10T14:45:26.657Z,0.85
2022-08-10T14:48:33.011Z,0.60
2022-08-10T14:51:02.947Z,0.55
2022-08-10T14:53:35.400Z,0.45
2022-08-10T14:56:13.570Z,0.63
2022-08-10T14:59:06.877Z,0.70
2022-08-10T15:02:00.809Z,1.20
2022-08-10T15:04:33.308Z,0.93
2022-08-10T15:07:30.034Z,0.70
2022-08-10T15:10:00.434Z,0.60
2022-08-10T15:12:35.034Z,0.50
2022-08-10T15:15:11.865Z,0.70
2022-08-10T15:17:57.616Z,0.60
2022-08-10T15:20:29.400Z,0.80
2022-08-10T15:23:05.482Z,0.57
2022-08-10T15:25:38.963Z,0.50
2022-08-10T15:28:11.684Z,0.50
2022-08-10T15:30:47.217Z,0.60
2022-08-10T15:34:02.508Z,0.40
2022-08-10T15:37:36.721Z,0.77
2022-08-10T15:40:21.767Z,0.60
2022-08-10T15:42:54.121Z,0.52
2022-08-10T15:45:22.797Z,0.50
2022-08-10T15:48:03.815Z,0.70
2022-08-10T15:50:45.632Z,0.60
2022-08-10T15:53:51.055Z,0.50
2022-08-10T15:56:39.936Z,0.75
2022-08-10T15:59:17.443Z,1.00
2022-08-10T16:02:12.488Z,0.57
2022-08-10T16:05:03.284Z,0.60
2022-08-10T16:07:46.170Z,0.60
2022-08-10T16:10:25.637Z,0.70
2022-08-10T16:14:00.873Z,0.75
2022-08-10T16:16:02.809Z,0.60
2022-08-10T16:18:38.531Z,0.63
2022-08-10T16:21:17.267Z,0.70
2022-08-10T16:24:15.112Z,1.10
2022-08-10T16:26:54.098Z,0.55
2022-08-10T16:29:26.281Z,0.57
2022-08-10T16:31:58.650Z,0.85
2022-08-10T16:34:29.188Z,0.50
2022-08-10T16:37:04.126Z,0.65
2022-08-10T16:40:00.338Z,0.73
2022-08-10T16:42:28.520Z,0.40
2022-08-10T16:45:06.167Z,0.50
2022-08-10T16:47:46.877Z,0.60
2022-08-10T16:50:24.669Z,0.60
2022-08-10T16:52:55.499Z,0.88
2022-08-10T16:55:48.211Z,0.60
2022-08-10T16:58:17.298Z,0.85
2022-08-10T17:00:46.930Z,0.60
2022-08-10T17:04:08.506Z,0.43
2022-08-10T17:07:03.739Z,0.70
2022-08-10T17:09:35.332Z,0.82
2022-08-10T17:12:11.367Z,0.70
2022-08-10T17:14:41.752Z,0.60
2022-08-10T17:17:30.917Z,0.50
2022-08-10T17:20:30.063Z,0.60
2022-08-10T17:22:56.400Z,0.52
2022-08-10T17:25:48.349Z,0.70
2022-08-10T17:28:33.093Z,0.70
2022-08-10T17:31:23.701Z,0.77
2022-08-10T17:33:58.221Z,0.70
2022-08-10T17:36:32.204Z,1.20
2022-08-10T17:39:02.362Z,0.65
2022-08-10T17:41:33.136Z,0.68
2022-08-10T17:44:05.557Z,0.68
2022-08-10T17:46:39.017Z,0.90
2022-08-10T17:49:13.201Z,0.80
2022-08-10T17:51:42.887Z,0.82
2022-08-10T17:54:31.156Z,0.60
2022-08-10T17:57:04.522Z,0.60
2022-08-10T17:59:33.812Z,0.80
2022-08-10T18:02:25.643Z,0.80
2022-08-10T18:04:56.698Z,0.60
2022-08-10T18:07:35.092Z,0.77
2022-08-10T18:10:05.439Z,0.70
2022-08-10T18:12:46.495Z,0.60
2022-08-10T18:15:22.932Z,1.45
2022-08-10T18:17:59.245Z,0.60
2022-08-10T18:20:34.644Z,0.88
2022-08-10T18:23:03.674Z,0.50
2022-08-10T18:25:57.513Z,0.90
2022-08-10T18:28:25.998Z,0.80
2022-08-10T18:30:55.464Z,0.68
2022-08-10T18:33:38.001Z,0.80
2022-08-10T18:36:09.403Z,0.70
2022-08-10T18:38:40.217Z,1.00
2022-08-10T18:41:16.073Z,1.05
2022-08-10T18:44:11.616Z,0.60
2022-08-10T18:46:54.752Z,0.70
2022-08-10T18:49:39.903Z,0.90
2022-08-10T18:52:15.322Z,2.58
2022-08-10T18:54:49.603Z,2.42
2022-08-10T18:57:42.846Z,1.40
2022-08-10T19:00:20.459Z,1.10
2022-08-10T19:03:53.612Z,0.80
2022-08-10T19:07:01.692Z,0.60
2022-08-10T19:09:47.215Z,0.68
2022-08-10T19:12:45.560Z,0.70
2022-08-10T19:15:27.282Z,0.75
2022-08-10T19:18:18.740Z,0.77
2022-08-10T19:21:07.520Z,0.60
2022-08-10T19:24:01.959Z,0.60
2022-08-10T19:26:54.050Z,0.75
2022-08-10T19:30:00.972Z,0.60
2022-08-10T19:32:49.373Z,0.47
2022-08-10T19:36:04.154Z,0.57
2022-08-10T19:38:50.448Z,0.90
2022-08-10T19:41:44.347Z,0.82
2022-08-10T19:44:52.696Z,0.80
2022-08-10T19:47:34.098Z,0.77
2022-08-10T19:50:30.517Z,0.68
2022-08-10T19:53:31.027Z,0.70
2022-08-10T19:56:43.418Z,0.50
2022-08-10T20:00:16.680Z,1.00
2022-08-10T20:02:29.893Z,0.90
2022-08-10T20:05:07.134Z,0.80
2022-08-10T20:08:19.506Z,0.70
2022-08-10T20:11:05.798Z,1.08
2022-08-10T20:13:45.837Z,0.90
2022-08-10T20:16:34.753Z,0.80
2022-08-10T20:19:22.528Z,1.00
2022-08-10T20:22:02.561Z,0.80
2022-08-10T20:24:56.153Z,0.70
2022-08-10T20:27:58.832Z,1.73
2022-08-10T20:30:31.879Z,1.20
2022-08-10T20:33:17.928Z,0.90
2022-08-10T20:36:19.285Z,0.95
2022-08-10T20:39:02.405Z,0.75
2022-08-10T20:41:54.829Z,0.77
2022-08-10T20:45:06.457Z,1.02
2022-08-10T20:48:03.822Z,1.08
2022-08-10T20:50:46.182Z,1.15
2022-08-10T20:53:22.239Z,0.80
2022-08-10T20:56:44.451Z,0.80
2022-08-10T20:59:33.658Z,0.80
2022-08-10T21:02:47.824Z,0.80
2022-08-10T21:05:30.411Z,1.10
2022-08-10T21:08:03.261Z,0.90
2022-08-10T21:14:47.744Z,0.95
2022-08-10T21:36:56.321Z,1.05
2022-08-10T21:40:04.506Z,1.00
2022-08-10T21:43:44.706Z,0.75
2022-08-10T21:46:54.751Z,0.73
2022-08-10T21:53:43.942Z,0.93
2022-08-10T21:56:51.101Z,1.10
2022-08-10T21:59:50.818Z,1.30
2022-08-10T22:02:50.900Z,0.82
2022-08-10T22:05:51.466Z,0.98
2022-08-10T22:08:46.101Z,1.02
2022-08-10T22:11:40.542Z,1.23
2022-08-10T22:14:33.984Z,1.13
2022-08-10T22:18:00.939Z,1.23
2022-08-10T22:20:59.069Z,1.10
2022-08-10T22:24:32.908Z,1.00
2022-08-10T22:27:59.247Z,1.23
2022-08-10T22:31:27.575Z,0.77
2022-08-10T22:31:28.509Z,1.05
2022-08-10T22:34:37.550Z,0.90
2022-08-10T22:38:07.788Z,1.10
2022-08-10T22:40:54.314Z,1.60
2022-08-10T22:44:16.509Z,1.00
2022-08-10T22:47:09.483Z,1.13
2022-08-10T22:49:36.336Z,1.10
2022-08-10T22:52:15.789Z,1.20
2022-08-10T22:55:18.115Z,1.10
2022-08-10T22:58:23.620Z,1.10
2022-08-10T23:01:09.170Z,1.08
2022-08-10T23:03:48.756Z,1.05
2022-08-10T23:06:26.196Z,0.93
2022-08-10T23:09:01.246Z,1.05
2022-08-10T23:11:38.272Z,1.08
2022-08-10T23:14:35.514Z,1.08
2022-08-10T23:18:02.061Z,1.35
2022-08-10T23:20:27.069Z,1.50
2022-08-10T23:23:08.919Z,1.15
2022-08-10T23:25:56.701Z,1.10
2022-08-10T23:28:39.181Z,1.10
2022-08-10T23:31:58.347Z,1.17
2022-08-10T23:34:08.337Z,1.27
2022-08-10T23:36:40.472Z,1.00
2022-08-10T23:39:26.660Z,1.30
2022-08-10T23:42:07.170Z,1.02
2022-08-10T23:44:46.532Z,1.70
2022-08-10T23:47:21.262Z,0.80
2022-08-10T23:49:52.358Z,1.30
2022-08-10T23:52:27.723Z,1.60
2022-08-10T23:55:20.229Z,1.30
2022-08-10T23:58:03.283Z,1.60
